Frank Wiley Field


Codes: KMLS/MLS
Name: Frank Wiley Field
City: Miles City
Country: United States
Elevation: 2630 ft.
Wikipedia:

Photos at Frank Wiley Field


   Photos courtesy of SpottingLog. You can add your own sightings and photos by signing up for a free trial today.



No photos found.

Weather at Frank Wiley Field


Time (UTC)DescriptionTempratureWindCloud coverageVisibilityPressureHumidity
19-Apr-2024 06:00Clear Sky0°C13 mph, NW6%10000m1027hPa38%
19-Apr-2024 09:00Clear Sky-1°C13 mph, NW5%10000m1029hPa50%
19-Apr-2024 12:00Few Clouds-3°C13 mph, NW11%10000m1032hPa69%
19-Apr-2024 15:00Scattered Clouds-0°C20 mph, NW40%10000m1033hPa50%
19-Apr-2024 18:00Broken Clouds2°C20 mph, NW70%10000m1032hPa43%
19-Apr-2024 21:00Overcast Clouds4°C18 mph, NW100%10000m1031hPa35%
20-Apr-2024 00:00Overcast Clouds4°C16 mph, NW100%10000m1031hPa34%
20-Apr-2024 03:00Broken Clouds1°C7 mph, N74%10000m1032hPa46%
20-Apr-2024 06:00Scattered Clouds-1°C4 mph, NE50%10000m1033hPa55%
20-Apr-2024 09:00Overcast Clouds-1°C2 mph, NE92%10000m1034hPa58%
20-Apr-2024 12:00Overcast Clouds-2°C2 mph, NE95%10000m1034hPa62%
20-Apr-2024 15:00Overcast Clouds2°C2 mph, NE97%10000m1033hPa47%
20-Apr-2024 18:00Broken Clouds6°C2 mph, N54%10000m1031hPa35%
20-Apr-2024 21:00Clear Sky8°C0 mph, W2%10000m1028hPa28%
21-Apr-2024 00:00Clear Sky9°C2 mph, E1%10000m1025hPa26%
21-Apr-2024 03:00Clear Sky6°C7 mph, SE0%10000m1025hPa33%
21-Apr-2024 06:00Clear Sky4°C7 mph, SE0%10000m1023hPa37%
21-Apr-2024 09:00Clear Sky3°C7 mph, SE0%10000m1022hPa45%
21-Apr-2024 12:00Few Clouds2°C7 mph, SE15%10000m1019hPa50%
21-Apr-2024 15:00Few Clouds9°C11 mph, S15%10000m1014hPa38%
21-Apr-2024 18:00Broken Clouds17°C13 mph, S58%10000m1009hPa26%
21-Apr-2024 21:00Overcast Clouds20°C9 mph, SW100%10000m1005hPa22%
22-Apr-2024 00:00Overcast Clouds16°C22 mph, NW100%10000m1005hPa35%
22-Apr-2024 03:00Light Rain13°C9 mph, N100%10000m1008hPa41%
22-Apr-2024 06:00Overcast Clouds10°C13 mph, NW100%10000m1009hPa35%
22-Apr-2024 09:00Overcast Clouds8°C13 mph, NW100%10000m1010hPa40%
22-Apr-2024 12:00Overcast Clouds6°C18 mph, W100%10000m1010hPa42%
22-Apr-2024 15:00Few Clouds8°C25 mph, W18%10000m1010hPa39%
22-Apr-2024 18:00Broken Clouds8°C29 mph, W57%10000m1010hPa56%
22-Apr-2024 21:00Light Rain11°C25 mph, NW100%10000m1009hPa46%
23-Apr-2024 00:00Light Rain8°C27 mph, NW100%10000m1011hPa61%
23-Apr-2024 03:00Light Rain5°C20 mph, NW100%10000m1016hPa80%
23-Apr-2024 06:00Overcast Clouds5°C18 mph, NW100%10000m1019hPa81%
23-Apr-2024 09:00Overcast Clouds5°C11 mph, NW95%10000m1021hPa77%
23-Apr-2024 12:00Overcast Clouds5°C7 mph, NW98%10000m1023hPa77%
23-Apr-2024 15:00Overcast Clouds6°C2 mph, NW100%10000m1023hPa67%
23-Apr-2024 18:00Overcast Clouds8°C2 mph, S100%10000m1022hPa52%
23-Apr-2024 21:00Scattered Clouds13°C7 mph, SE34%10000m1019hPa39%
24-Apr-2024 00:00Broken Clouds14°C9 mph, SE57%10000m1016hPa34%
24-Apr-2024 03:00Overcast Clouds10°C11 mph, E96%10000m1016hPa45%